createdAt,value
2022-11-28T00:01:37.393Z,99131.16
2022-11-28T00:04:05.468Z,99119.06
2022-11-28T00:06:32.325Z,99117.31
2022-11-28T00:08:59.966Z,99119.09
2022-11-28T00:11:27.560Z,99119.94
2022-11-28T00:13:54.704Z,99103.53
2022-11-28T00:16:22.503Z,99107.84
2022-11-28T00:18:50.554Z,99106.94
2022-11-28T00:21:18.521Z,99097.50
2022-11-28T00:23:46.801Z,99100.03
2022-11-28T00:26:19.656Z,99099.16
2022-11-28T00:28:47.060Z,99089.66
2022-11-28T00:31:19.012Z,99087.94
2022-11-28T00:33:46.475Z,99082.78
2022-11-28T00:36:13.849Z,99087.97
2022-11-28T00:38:41.243Z,99098.34
2022-11-28T00:41:11.691Z,99077.59
2022-11-28T00:43:38.384Z,99072.44
2022-11-28T00:46:05.328Z,99073.31
2022-11-28T00:48:33.470Z,99083.66
2022-11-28T00:51:17.487Z,99065.56
2022-11-28T00:53:45.468Z,99081.09
2022-11-28T00:56:13.974Z,99095.81
2022-11-28T00:58:41.659Z,99089.75
2022-11-28T01:01:10.816Z,99084.59
2022-11-28T01:03:39.025Z,99086.31
2022-11-28T01:06:06.636Z,99082.03
2022-11-28T01:08:33.581Z,99086.34
2022-11-28T01:11:00.961Z,99086.34
2022-11-28T01:13:28.513Z,99079.41
2022-11-28T01:15:55.528Z,99068.22
2022-11-28T01:18:22.303Z,99076.84
2022-11-28T01:20:49.013Z,99083.75
2022-11-28T01:23:18.523Z,99080.31
2022-11-28T01:25:45.314Z,99063.94
2022-11-28T01:28:12.015Z,99057.88
2022-11-28T01:30:39.108Z,99049.22
2022-11-28T01:33:05.922Z,99044.91
2022-11-28T01:35:32.650Z,99049.22
2022-11-28T01:37:59.340Z,99038.84
2022-11-28T01:40:26.060Z,99037.09
2022-11-28T01:42:52.834Z,99035.38
2022-11-28T01:45:31.343Z,99011.22
2022-11-28T01:48:02.762Z,99018.06
2022-11-28T01:50:33.149Z,99030.09
2022-11-28T01:53:04.642Z,99026.63
2022-11-28T01:55:35.530Z,99023.09
2022-11-28T01:58:02.283Z,99024.81
2022-11-28T02:00:29.219Z,99001.47
2022-11-28T02:03:17.735Z,99015.25
2022-11-28T02:05:44.603Z,99004.81
2022-11-28T02:08:11.388Z,98999.59
2022-11-28T02:10:49.754Z,98990.94
2022-11-28T02:13:41.289Z,98988.31
2022-11-28T02:16:29.549Z,98987.38
2022-11-28T02:19:23.295Z,98983.06
2022-11-28T02:21:59.653Z,98985.66
2022-11-28T02:24:32.453Z,98984.78
2022-11-28T02:27:29.764Z,98983.91
2022-11-28T02:30:22.076Z,98955.47
2022-11-28T02:33:07.101Z,98989.94
2022-11-28T02:35:55.351Z,98989.91
2022-11-28T02:38:48.520Z,98989.06
2022-11-28T02:41:22.939Z,98975.16
2022-11-28T02:44:07.971Z,98986.41
2022-11-28T02:46:44.482Z,98983.78
2022-11-28T02:49:33.308Z,98976.81
2022-11-28T02:52:07.407Z,98970.78
2022-11-28T02:54:35.236Z,98969.03
2022-11-28T02:57:03.107Z,98958.72
2022-11-28T02:59:39.057Z,98967.25
2022-11-28T03:02:12.596Z,98960.31
2022-11-28T03:05:29.440Z,98947.38
2022-11-28T03:08:04.769Z,98946.47
2022-11-28T03:10:43.569Z,98945.59
2022-11-28T03:13:21.137Z,98915.44
2022-11-28T03:16:14.910Z,98937.81
2022-11-28T03:18:50.729Z,98941.25
2022-11-28T03:21:36.409Z,98940.34
2022-11-28T03:24:26.585Z,98949.00
2022-11-28T03:26:59.098Z,98926.56
2022-11-28T03:29:43.171Z,98935.19
2022-11-28T03:32:32.407Z,98945.56
2022-11-28T03:35:06.508Z,98947.31
2022-11-28T03:37:40.533Z,98930.97
2022-11-28T03:40:12.323Z,98937.00
2022-11-28T03:42:47.387Z,98912.81
2022-11-28T03:45:26.628Z,98932.66
2022-11-28T03:48:02.545Z,98922.31
2022-11-28T03:50:37.389Z,98925.72
2022-11-28T03:53:15.907Z,98919.72
2022-11-28T03:55:49.621Z,98924.91
2022-11-28T03:58:39.731Z,98922.34
2022-11-28T04:01:20.947Z,98918.94
2022-11-28T04:04:07.909Z,98936.19
2022-11-28T04:06:43.688Z,98927.53
2022-11-28T04:09:19.136Z,98907.72
2022-11-28T04:11:56.523Z,98924.09
2022-11-28T04:14:48.441Z,98924.94
2022-11-28T04:17:22.796Z,98923.19
2022-11-28T04:19:55.852Z,98931.88
2022-11-28T04:22:37.582Z,98918.88
2022-11-28T04:25:10.646Z,98925.78
2022-11-28T04:27:47.781Z,98905.06
2022-11-28T04:30:15.012Z,98902.50
2022-11-28T04:32:50.276Z,98901.59
2022-11-28T04:35:24.517Z,98912.88
2022-11-28T04:37:52.719Z,98899.94
2022-11-28T04:40:23.772Z,98898.19
2022-11-28T04:42:57.547Z,98899.06
2022-11-28T04:45:32.372Z,98901.69
2022-11-28T04:47:59.788Z,98888.78
2022-11-28T04:50:34.270Z,98899.13
2022-11-28T04:53:07.697Z,98903.41
2022-11-28T04:56:01.117Z,98892.19
2022-11-28T04:58:42.036Z,98876.69
2022-11-28T05:01:14.474Z,98902.56
2022-11-28T05:03:42.924Z,98893.94
2022-11-28T05:06:10.069Z,98894.88
2022-11-28T05:08:37.061Z,98888.84
2022-11-28T05:11:03.949Z,98898.34
2022-11-28T05:13:30.723Z,98878.59
2022-11-28T05:16:00.510Z,98904.38
2022-11-28T05:18:27.294Z,98899.19
2022-11-28T05:20:54.049Z,98914.66
2022-11-28T05:23:20.761Z,98912.94
2022-11-28T05:25:47.529Z,98901.78
2022-11-28T05:28:14.185Z,98912.19
2022-11-28T05:30:40.878Z,98891.56
2022-11-28T05:33:07.976Z,98916.50
2022-11-28T05:35:35.384Z,98909.59
2022-11-28T05:38:02.059Z,98900.06
2022-11-28T05:40:28.812Z,98894.91
2022-11-28T05:42:55.520Z,98901.88
2022-11-28T05:45:22.325Z,98888.06
2022-11-28T05:47:49.042Z,98899.25
2022-11-28T05:50:15.818Z,98893.19
2022-11-28T05:52:42.564Z,98878.56
2022-11-28T05:55:09.584Z,98888.88
2022-11-28T05:57:36.271Z,98897.47
2022-11-28T06:00:04.002Z,98894.06
2022-11-28T06:02:38.359Z,98901.06
2022-11-28T06:05:27.393Z,98900.22
2022-11-28T06:07:52.429Z,98893.34
2022-11-28T06:10:19.817Z,98901.91
2022-11-28T06:12:46.505Z,98884.63
2022-11-28T06:15:13.225Z,98898.38
2022-11-28T06:17:39.947Z,98881.06
2022-11-28T06:20:07.947Z,98847.50
2022-11-28T06:22:35.606Z,98887.16
2022-11-28T06:25:02.304Z,98879.50
2022-11-28T06:27:29.216Z,98883.78
2022-11-28T06:29:55.937Z,98876.97
2022-11-28T06:32:22.682Z,98868.38
2022-11-28T06:34:49.472Z,98878.69
2022-11-28T06:37:16.216Z,98887.22
2022-11-28T06:39:43.660Z,98872.56
2022-11-28T06:42:10.892Z,98882.78
2022-11-28T06:44:37.723Z,98887.06
2022-11-28T06:47:04.529Z,98884.44
2022-11-28T06:49:31.256Z,98887.84
2022-11-28T06:51:57.985Z,98891.38
2022-11-28T06:54:24.724Z,98890.59
2022-11-28T06:56:51.432Z,98899.19
2022-11-28T06:59:18.264Z,98877.75
2022-11-28T07:01:45.464Z,98901.84
2022-11-28T07:04:12.445Z,98881.91
2022-11-28T07:06:39.300Z,98880.19
2022-11-28T07:09:06.024Z,98885.28
2022-11-28T07:11:33.190Z,98880.97
2022-11-28T07:14:01.521Z,98892.16
2022-11-28T07:16:31.049Z,98884.50
2022-11-28T07:18:59.265Z,98873.31
2022-11-28T07:21:27.313Z,98870.72
2022-11-28T07:23:54.405Z,98864.75
2022-11-28T07:26:21.713Z,98872.41
2022-11-28T07:28:50.209Z,98879.38
2022-11-28T07:31:18.436Z,98872.44
2022-11-28T07:33:47.404Z,98878.50
2022-11-28T07:36:18.502Z,98872.50
2022-11-28T07:38:50.588Z,98877.72
2022-11-28T07:41:21.287Z,98881.19
2022-11-28T07:43:53.081Z,98875.22
2022-11-28T07:46:20.288Z,98879.53
2022-11-28T07:48:48.099Z,98868.25
2022-11-28T07:51:18.927Z,98879.47
2022-11-28T07:53:46.116Z,98874.28
2022-11-28T07:56:15.460Z,98872.56
2022-11-28T07:58:44.256Z,98867.38
2022-11-28T08:01:16.769Z,98862.97
2022-11-28T08:03:47.222Z,98853.53
2022-11-28T08:06:16.815Z,98856.97
2022-11-28T08:08:44.297Z,98840.50
2022-11-28T08:11:11.608Z,98861.25
2022-11-28T08:13:38.820Z,98851.78
2022-11-28T08:16:08.063Z,98845.75
2022-11-28T08:18:36.101Z,98857.94
2022-11-28T08:21:04.366Z,98865.75
2022-11-28T08:23:31.187Z,98857.09
2022-11-28T08:25:57.957Z,98860.47
2022-11-28T08:28:25.214Z,98851.88
2022-11-28T08:30:52.289Z,98853.53
2022-11-28T08:33:19.248Z,98845.00
2022-11-28T08:35:46.001Z,98858.66
2022-11-28T08:38:13.596Z,98859.53
2022-11-28T08:40:40.343Z,98850.72
2022-11-28T08:43:08.091Z,98849.88
2022-11-28T08:45:37.228Z,98859.38
2022-11-28T08:48:05.330Z,98848.22
2022-11-28T08:50:32.050Z,98855.00
2022-11-28T08:53:01.738Z,98857.63
2022-11-28T08:55:39.123Z,98851.50
2022-11-28T08:58:08.606Z,98841.25
2022-11-28T09:00:35.476Z,98850.69
2022-11-28T09:03:02.319Z,98859.28
2022-11-28T09:05:30.051Z,98859.41
2022-11-28T09:07:56.830Z,98851.63
2022-11-28T09:10:24.837Z,98859.25
2022-11-28T09:12:53.017Z,98848.09
2022-11-28T09:15:20.015Z,98839.38
2022-11-28T09:17:46.883Z,98860.97
2022-11-28T09:20:13.950Z,98855.72
2022-11-28T09:22:42.683Z,98848.03
2022-11-28T09:25:10.001Z,98839.31
2022-11-28T09:27:36.895Z,98848.69
2022-11-28T09:30:04.033Z,98812.41
2022-11-28T09:32:30.807Z,98830.53
2022-11-28T09:34:57.582Z,98815.09
2022-11-28T09:37:24.425Z,98831.31
2022-11-28T09:40:11.896Z,98816.56
2022-11-28T09:42:44.577Z,98815.66
2022-11-28T09:45:13.420Z,98820.78
2022-11-28T09:47:42.911Z,98805.25
2022-11-28T09:50:20.838Z,98804.16
2022-11-28T09:53:03.736Z,98796.19
2022-11-28T09:55:53.969Z,98797.16
2022-11-28T09:58:26.804Z,98799.69
2022-11-28T10:01:23.183Z,98792.75
2022-11-28T10:03:58.585Z,98763.34
2022-11-28T10:06:30.961Z,98778.63
2022-11-28T10:09:22.890Z,98770.63
2022-11-28T10:12:05.882Z,98774.66
2022-11-28T10:14:57.150Z,98758.75
2022-11-28T10:17:29.824Z,98756.13
2022-11-28T10:20:10.744Z,98745.25
2022-11-28T10:22:51.693Z,98754.84
2022-11-28T10:25:38.053Z,98740.06
2022-11-28T10:28:22.586Z,98740.00
2022-11-28T10:31:13.916Z,98731.97
2022-11-28T10:33:46.449Z,98728.28
2022-11-28T10:36:20.909Z,98725.47
2022-11-28T10:38:47.691Z,98732.31
2022-11-28T10:41:24.615Z,98700.38
2022-11-28T10:43:59.612Z,98726.91
2022-11-28T10:46:44.566Z,98700.25
2022-11-28T10:49:20.189Z,98722.47
2022-11-28T10:52:09.864Z,98717.22
2022-11-28T10:54:45.727Z,98718.19
2022-11-28T10:57:20.981Z,98700.19
2022-11-28T10:59:59.316Z,98715.88
2022-11-28T11:02:41.377Z,98708.25
2022-11-28T11:05:13.920Z,98691.13
2022-11-28T11:07:46.368Z,98687.81
2022-11-28T11:10:17.509Z,98696.50
2022-11-28T11:12:44.862Z,98692.19
2022-11-28T11:15:32.725Z,98694.78
2022-11-28T11:18:23.823Z,98660.47
2022-11-28T11:20:50.933Z,98681.81
2022-11-28T11:23:18.903Z,98683.53
2022-11-28T11:26:00.901Z,98677.41
2022-11-28T11:28:38.652Z,98680.91
2022-11-28T11:31:06.985Z,98686.97
2022-11-28T11:33:36.373Z,98680.81
2022-11-28T11:36:04.972Z,98690.16
2022-11-28T11:38:38.054Z,98668.44
2022-11-28T11:41:29.818Z,98666.75
2022-11-28T11:44:17.147Z,98667.47
2022-11-28T11:47:08.006Z,98670.00
2022-11-28T11:49:47.949Z,98673.31
2022-11-28T11:52:20.943Z,98645.94
2022-11-28T11:54:56.655Z,98668.31
2022-11-28T11:57:44.850Z,98665.38
2022-11-28T12:00:18.276Z,98658.25
2022-11-28T12:02:55.353Z,98644.63
2022-11-28T12:05:52.468Z,98653.84
2022-11-28T12:08:35.785Z,98647.88
2022-11-28T12:11:17.811Z,98641.59
2022-11-28T12:13:45.092Z,98642.72
2022-11-28T12:16:34.692Z,98650.69
2022-11-28T12:19:18.448Z,98642.72
2022-11-28T12:22:12.132Z,98621.13
2022-11-28T12:25:13.259Z,98627.88
2022-11-28T12:28:10.563Z,98639.00
2022-11-28T12:30:54.302Z,98633.72
2022-11-28T12:33:39.272Z,98620.03
2022-11-28T12:36:24.061Z,98619.00
2022-11-28T12:39:00.395Z,98620.78
2022-11-28T12:42:01.574Z,98618.16
2022-11-28T12:44:54.348Z,98612.81
2022-11-28T12:47:40.337Z,98610.13
2022-11-28T12:50:26.663Z,98611.84
2022-11-28T12:53:11.629Z,98604.88
2022-11-28T12:55:48.465Z,98602.09
2022-11-28T12:58:51.511Z,98601.09
2022-11-28T13:01:41.866Z,98595.03
2022-11-28T13:04:24.173Z,98594.19
2022-11-28T13:07:28.203Z,98575.81
2022-11-28T13:10:19.885Z,98587.16
2022-11-28T13:13:09.003Z,98590.53
2022-11-28T13:15:47.997Z,98593.88
2022-11-28T13:18:38.483Z,98584.31
2022-11-28T13:21:41.329Z,98591.03
2022-11-28T13:24:25.697Z,98596.50
2022-11-28T13:27:00.364Z,98588.75
2022-11-28T13:29:54.164Z,98593.13
2022-11-28T13:32:35.538Z,98579.97
2022-11-28T13:35:03.223Z,98585.25
2022-11-28T13:40:48.601Z,98587.53
2022-11-28T13:43:33.474Z,98584.16
2022-11-28T13:46:00.603Z,98589.19
2022-11-28T13:51:30.871Z,98595.13
2022-11-28T13:54:22.888Z,98595.84
2022-11-28T13:57:15.366Z,98598.53
2022-11-28T13:59:58.682Z,98596.75
2022-11-28T14:02:42.230Z,98585.59
2022-11-28T14:05:41.715Z,98601.78
2022-11-28T14:08:23.204Z,98570.59
2022-11-28T14:11:27.651Z,98587.00
2022-11-28T14:14:01.123Z,98581.00
2022-11-28T14:16:56.969Z,98592.88
2022-11-28T14:19:30.932Z,98564.66
2022-11-28T14:22:12.965Z,98591.28
2022-11-28T14:25:04.785Z,98590.38
2022-11-28T14:27:36.345Z,98588.69
2022-11-28T14:30:06.624Z,98575.78
2022-11-28T14:32:37.850Z,98591.13
2022-11-28T14:35:10.524Z,98582.38
2022-11-28T14:37:53.990Z,98589.28
2022-11-28T14:40:56.961Z,98591.00
2022-11-28T14:43:23.941Z,98593.47
2022-11-28T14:45:52.584Z,98589.91
2022-11-28T14:48:30.175Z,98593.44
2022-11-28T14:51:01.878Z,98587.38
2022-11-28T14:53:43.326Z,98594.22
2022-11-28T14:56:30.708Z,98582.19
2022-11-28T14:59:01.873Z,98591.50
2022-11-28T15:02:01.756Z,98592.34
2022-11-28T15:04:59.142Z,98583.69
2022-11-28T15:07:43.439Z,98582.66
2022-11-28T15:10:29.829Z,98582.66
2022-11-28T15:13:05.827Z,98602.41
2022-11-28T15:15:32.639Z,98592.75
2022-11-28T15:18:02.260Z,98600.53
2022-11-28T15:20:36.228Z,98598.78
2022-11-28T15:23:03.155Z,98601.31
2022-11-28T15:25:37.404Z,98603.91
2022-11-28T15:28:19.261Z,98608.38
2022-11-28T15:30:48.781Z,98607.66
2022-11-28T15:33:16.139Z,98603.25
2022-11-28T15:35:58.384Z,98600.72
2022-11-28T15:38:26.443Z,98596.34
2022-11-28T15:40:55.745Z,98601.41
2022-11-28T15:43:23.995Z,98601.47
2022-11-28T15:45:58.571Z,98606.63
2022-11-28T15:48:39.262Z,98607.44
2022-11-28T15:51:08.271Z,98610.03
2022-11-28T15:53:42.237Z,98615.09
2022-11-28T15:56:13.725Z,98616.88
2022-11-28T15:58:42.974Z,98612.66
2022-11-28T16:01:15.757Z,98621.31
2022-11-28T16:04:04.977Z,98620.47
2022-11-28T16:06:35.396Z,98605.19
2022-11-28T16:09:07.131Z,98619.81
2022-11-28T16:11:35.732Z,98618.06
2022-11-28T16:14:09.264Z,98611.84
2022-11-28T16:16:39.067Z,98621.19
2022-11-28T16:19:28.624Z,98612.50
2022-11-28T16:22:00.241Z,98626.34
2022-11-28T16:24:33.943Z,98625.50
2022-11-28T16:27:07.191Z,98636.78
2022-11-28T16:29:36.096Z,98620.25
2022-11-28T16:32:09.696Z,98625.53
2022-11-28T16:34:48.255Z,98627.50
2022-11-28T16:37:23.691Z,98628.16
2022-11-28T16:40:00.756Z,98631.63
2022-11-28T16:42:28.056Z,98628.13
2022-11-28T16:44:54.614Z,98632.44
2022-11-28T16:47:28.041Z,98623.72
2022-11-28T16:50:16.019Z,98628.03
2022-11-28T16:52:53.966Z,98622.84
2022-11-28T16:55:33.111Z,98628.00
2022-11-28T16:58:08.842Z,98631.47
2022-11-28T17:00:36.849Z,98635.84
2022-11-28T17:03:06.443Z,98634.94
2022-11-28T17:05:35.878Z,98629.72
2022-11-28T17:08:02.609Z,98634.03
2022-11-28T17:10:29.514Z,98634.03
2022-11-28T17:12:56.284Z,98641.81
2022-11-28T17:15:23.646Z,98643.41
2022-11-28T17:17:50.422Z,98643.50
2022-11-28T17:20:18.428Z,98653.84
2022-11-28T17:22:51.576Z,98653.81
2022-11-28T17:25:21.446Z,98646.88
2022-11-28T17:27:49.558Z,98656.34
2022-11-28T17:30:18.895Z,98661.50
2022-11-28T17:32:52.603Z,98656.44
2022-11-28T17:35:24.767Z,98663.22
2022-11-28T17:37:51.448Z,98660.53
2022-11-28T17:40:33.116Z,98655.22
2022-11-28T17:43:01.264Z,98655.22
2022-11-28T17:45:30.348Z,98657.78
2022-11-28T17:47:57.195Z,98649.31
2022-11-28T17:50:23.932Z,98664.00
2022-11-28T17:52:50.743Z,98661.38
2022-11-28T17:55:18.571Z,98658.88
2022-11-28T17:57:45.262Z,98639.75
2022-11-28T18:00:17.502Z,98661.19
2022-11-28T18:02:44.956Z,98657.63
2022-11-28T18:05:11.839Z,98654.19
2022-11-28T18:07:40.011Z,98658.44
2022-11-28T18:10:10.799Z,98664.56
2022-11-28T18:12:39.107Z,98654.19
2022-11-28T18:15:07.781Z,98646.38
2022-11-28T18:17:34.550Z,98644.63
2022-11-28T18:20:02.109Z,98647.22
2022-11-28T18:22:28.983Z,98647.22
2022-11-28T18:24:55.724Z,98635.94
2022-11-28T18:27:22.513Z,98653.06
2022-11-28T18:29:49.177Z,98649.63
2022-11-28T18:32:15.876Z,98657.34
2022-11-28T18:34:42.847Z,98647.75
2022-11-28T18:37:10.786Z,98651.13
2022-11-28T18:39:37.605Z,98652.88
2022-11-28T18:42:04.921Z,98652.91
2022-11-28T18:44:31.729Z,98651.00
2022-11-28T18:46:58.695Z,98638.34
2022-11-28T18:49:25.620Z,98659.78
2022-11-28T18:51:54.739Z,98646.00
2022-11-28T18:54:22.204Z,98655.38
2022-11-28T18:56:49.524Z,98652.91
2022-11-28T18:59:16.467Z,98649.31
2022-11-28T19:01:43.341Z,98660.59
2022-11-28T19:04:12.461Z,98660.53
2022-11-28T19:06:40.516Z,98654.53
2022-11-28T19:09:10.825Z,98666.75
2022-11-28T19:11:37.939Z,98664.28
2022-11-28T19:14:06.675Z,98661.63
2022-11-28T19:16:36.731Z,98654.84
2022-11-28T19:19:05.365Z,98654.84
2022-11-28T19:21:35.260Z,98663.38
2022-11-28T19:24:02.940Z,98659.03
2022-11-28T19:26:30.987Z,98659.13
2022-11-28T19:28:59.916Z,98655.47
2022-11-28T19:31:30.077Z,98653.81
2022-11-28T19:34:11.194Z,98660.59
2022-11-28T19:36:41.023Z,98658.88
2022-11-28T19:39:09.578Z,98655.50
2022-11-28T19:41:36.388Z,98661.47
2022-11-28T19:44:03.146Z,98666.72
2022-11-28T19:46:35.029Z,98663.22
2022-11-28T19:49:07.441Z,98658.03
2022-11-28T19:51:34.867Z,98664.91
2022-11-28T19:54:03.781Z,98653.81
2022-11-28T19:56:32.464Z,98666.59
2022-11-28T19:58:59.987Z,98660.53
2022-11-28T20:01:28.314Z,98672.56
2022-11-28T20:03:55.541Z,98668.22
2022-11-28T20:06:30.871Z,98666.50
2022-11-28T20:09:01.345Z,98666.56
2022-11-28T20:11:34.448Z,98664.84
2022-11-28T20:14:12.041Z,98663.97
2022-11-28T20:16:40.317Z,98641.91
2022-11-28T20:19:07.192Z,98666.63
2022-11-28T20:21:34.416Z,98662.31
2022-11-28T20:24:05.236Z,98660.59
2022-11-28T20:26:39.663Z,98656.22
2022-11-28T20:29:07.331Z,98660.53
2022-11-28T20:31:45.219Z,98659.66
2022-11-28T20:34:13.803Z,98663.13
2022-11-28T20:36:44.106Z,98661.41
2022-11-28T20:39:12.484Z,98666.50
2022-11-28T20:41:39.676Z,98660.47
2022-11-28T20:44:06.284Z,98670.84
2022-11-28T20:46:35.833Z,98672.56
2022-11-28T20:49:05.768Z,98676.81
2022-11-28T20:51:35.351Z,98676.75
2022-11-28T20:54:05.120Z,98676.72
2022-11-28T20:56:51.554Z,98675.81
2022-11-28T20:59:22.245Z,98682.69
2022-11-28T21:01:49.402Z,98680.94
2022-11-28T21:04:17.143Z,98677.47
2022-11-28T21:06:47.162Z,98676.56
2022-11-28T21:09:15.482Z,98675.78
2022-11-28T21:11:56.820Z,98673.09
2022-11-28T21:14:25.010Z,98679.13
2022-11-28T21:16:51.898Z,98680.03
2022-11-28T21:19:18.773Z,98680.91
2022-11-28T21:21:45.480Z,98670.56
2022-11-28T21:24:13.705Z,98683.59
2022-11-28T21:26:45.315Z,98682.72
2022-11-28T21:29:16.648Z,98673.19
2022-11-28T21:31:45.299Z,98670.59
2022-11-28T21:34:17.071Z,98653.31
2022-11-28T21:36:44.559Z,98666.19
2022-11-28T21:39:16.504Z,98670.47
2022-11-28T21:41:43.295Z,98667.84
2022-11-28T21:44:10.179Z,98669.53
2022-11-28T21:46:37.837Z,98660.84
2022-11-28T21:49:05.659Z,98665.22
2022-11-28T21:51:35.728Z,98659.19
2022-11-28T21:54:02.791Z,98662.66
2022-11-28T21:56:31.039Z,98654.00
2022-11-28T21:58:58.124Z,98665.31
2022-11-28T22:01:24.961Z,98654.81
2022-11-28T22:03:53.579Z,98661.81
2022-11-28T22:06:24.558Z,98657.50
2022-11-28T22:08:52.441Z,98665.34
2022-11-28T22:11:20.918Z,98654.19
2022-11-28T22:13:49.048Z,98654.94
2022-11-28T22:16:22.062Z,98657.59
2022-11-28T22:18:50.324Z,98650.63
2022-11-28T22:24:05.381Z,98658.25
2022-11-28T22:26:31.964Z,98657.41
2022-11-28T22:28:58.970Z,98664.34
2022-11-28T22:31:25.864Z,98672.16
2022-11-28T22:33:52.917Z,98662.78
2022-11-28T22:36:21.337Z,98665.31
2022-11-28T22:38:49.513Z,98665.31
2022-11-28T22:41:24.777Z,98659.22
2022-11-28T22:43:56.707Z,98670.53
2022-11-28T22:46:23.864Z,98657.63
2022-11-28T22:48:51.916Z,98657.69
2022-11-28T22:51:24.737Z,98661.88
2022-11-28T22:53:55.929Z,98655.13
2022-11-28T22:56:25.696Z,98656.59
2022-11-28T22:58:52.875Z,98650.59
2022-11-28T23:01:25.180Z,98663.50
2022-11-28T23:03:52.453Z,98658.28
2022-11-28T23:06:20.271Z,98658.28
2022-11-28T23:08:52.558Z,98651.44
2022-11-28T23:11:22.337Z,98662.56
2022-11-28T23:13:50.099Z,98659.06
2022-11-28T23:16:21.136Z,98659.09
2022-11-28T23:18:50.040Z,98657.44
2022-11-28T23:21:18.720Z,98627.41
2022-11-28T23:23:46.050Z,98653.03
2022-11-28T23:26:17.020Z,98654.81
2022-11-28T23:28:44.532Z,98651.28
2022-11-28T23:31:38.839Z,98653.91
2022-11-28T23:34:06.614Z,98653.06
2022-11-28T23:36:41.525Z,98653.03
2022-11-28T23:39:20.344Z,98644.28
2022-11-28T23:41:47.787Z,98646.00
2022-11-28T23:44:16.667Z,98649.41
2022-11-28T23:46:44.229Z,98639.88
2022-11-28T23:49:12.283Z,98643.31
2022-11-28T23:51:42.814Z,98639.88
2022-11-28T23:54:11.141Z,98645.06
2022-11-28T23:56:39.685Z,98643.41
2022-11-28T23:59:08.225Z,98646.78
